Weather at Mauke Airport

Public forecast

Using degrees Celsius for public forecast. Weather courtesy of forecast.io.

Current aviation weather report (METAR) for Mauke Airport

Retrieved 2021/10/16 18:00 UTC (24 minutes ago):

NCMK 161800Z AUTO 15002KT //// ////// ///// Q1015

Closest aviation forecast (TAF) to Mauke Airport

Closest forecast is Rarotonga International Airport, 152.4 nm (282.2 km) WSW. Retrieved 2021/10/16 18:00 UTC (24 minutes ago):

TAF NCRG 161714Z 1618/1718 09005KT 9999 SCT020 PROB40 TEMPO 1702/1718 5000 SHRA BKN016